sensor_id;sensor_type;location;lat;lon;timestamp;pressure;altitude;pressure_sealevel;temperature;humidity
10712;BME280;5407;51.234;6.804;2023-01-30T00:01:05;101400.13;;;22.97;32.28
10712;BME280;5407;51.234;6.804;2023-01-30T00:03:34;101400.13;;;22.97;32.50
10712;BME280;5407;51.234;6.804;2023-01-30T00:06:01;101404.84;;;22.97;32.40
10712;BME280;5407;51.234;6.804;2023-01-30T00:08:27;101410.34;;;22.97;32.41
10712;BME280;5407;51.234;6.804;2023-01-30T00:10:54;101435.88;;;22.97;32.43
10712;BME280;5407;51.234;6.804;2023-01-30T00:13:21;101426.88;;;22.97;32.32
10712;BME280;5407;51.234;6.804;2023-01-30T00:15:48;101415.03;;;23.00;32.32
10712;BME280;5407;51.234;6.804;2023-01-30T00:18:15;101407.97;;;22.99;32.36
10712;BME280;5407;51.234;6.804;2023-01-30T00:20:43;101394.22;;;22.99;32.33
10712;BME280;5407;51.234;6.804;2023-01-30T00:23:10;101394.22;;;22.99;32.38
10712;BME280;5407;51.234;6.804;2023-01-30T00:25:37;101401.69;;;22.98;32.38
10712;BME280;5407;51.234;6.804;2023-01-30T00:28:03;101394.59;;;23.01;32.34
10712;BME280;5407;51.234;6.804;2023-01-30T00:30:30;101394.59;;;22.97;32.31
10712;BME280;5407;51.234;6.804;2023-01-30T00:32:58;101388.28;;;23.00;32.26
10712;BME280;5407;51.234;6.804;2023-01-30T00:35:25;101385.97;;;22.99;32.25
10712;BME280;5407;51.234;6.804;2023-01-30T00:37:58;101380.84;;;22.97;32.31
10712;BME280;5407;51.234;6.804;2023-01-30T00:40:26;101370.63;;;22.98;32.22
10712;BME280;5407;51.234;6.804;2023-01-30T00:42:54;101375.72;;;22.99;32.23
10712;BME280;5407;51.234;6.804;2023-01-30T00:45:40;101362.38;;;22.98;32.16
10712;BME280;5407;51.234;6.804;2023-01-30T00:48:24;101358.47;;;22.95;32.35
10712;BME280;5407;51.234;6.804;2023-01-30T00:50:51;101344.69;;;22.99;32.29
10712;BME280;5407;51.234;6.804;2023-01-30T00:53:20;101336.44;;;22.95;32.36
10712;BME280;5407;51.234;6.804;2023-01-30T00:55:49;101335.63;;;22.98;32.18
10712;BME280;5407;51.234;6.804;2023-01-30T00:58:16;101333.31;;;22.97;32.33
10712;BME280;5407;51.234;6.804;2023-01-30T01:00:43;101337.19;;;22.99;32.25
10712;BME280;5407;51.234;6.804;2023-01-30T01:03:10;101335.22;;;23.00;32.30
10712;BME280;5407;51.234;6.804;2023-01-30T01:05:37;101336.41;;;22.99;32.38
10712;BME280;5407;51.234;6.804;2023-01-30T01:08:04;101328.16;;;22.99;32.33
10712;BME280;5407;51.234;6.804;2023-01-30T01:10:33;101319.13;;;22.95;32.47
10712;BME280;5407;51.234;6.804;2023-01-30T01:12:59;101324.22;;;23.00;32.48
10712;BME280;5407;51.234;6.804;2023-01-30T01:15:27;101319.91;;;22.99;32.33
10712;BME280;5407;51.234;6.804;2023-01-30T01:17:53;101315.97;;;23.00;32.36
10712;BME280;5407;51.234;6.804;2023-01-30T01:20:21;101314.81;;;22.97;32.27
10712;BME280;5407;51.234;6.804;2023-01-30T01:22:52;101306.16;;;22.99;32.19
10712;BME280;5407;51.234;6.804;2023-01-30T01:25:19;101299.09;;;22.98;32.27
10712;BME280;5407;51.234;6.804;2023-01-30T01:27:48;101297.91;;;22.99;32.29
10712;BME280;5407;51.234;6.804;2023-01-30T01:30:16;101291.63;;;22.95;32.45
10712;BME280;5407;51.234;6.804;2023-01-30T01:32:43;101300.28;;;22.97;32.30
10712;BME280;5407;51.234;6.804;2023-01-30T01:35:10;101301.44;;;22.96;32.32
10712;BME280;5407;51.234;6.804;2023-01-30T01:37:37;101292.03;;;22.97;32.53
10712;BME280;5407;51.234;6.804;2023-01-30T01:40:05;101290.81;;;22.98;32.42
10712;BME280;5407;51.234;6.804;2023-01-30T01:42:51;101287.69;;;22.96;32.41
10712;BME280;5407;51.234;6.804;2023-01-30T01:45:20;101283.75;;;22.97;32.35
10712;BME280;5407;51.234;6.804;2023-01-30T01:47:56;101284.53;;;22.97;32.33
10712;BME280;5407;51.234;6.804;2023-01-30T01:50:27;101286.50;;;22.97;32.32
10712;BME280;5407;51.234;6.804;2023-01-30T01:52:59;101283.75;;;22.97;32.37
10712;BME280;5407;51.234;6.804;2023-01-30T01:55:27;101297.91;;;22.99;32.33
10712;BME280;5407;51.234;6.804;2023-01-30T01:58:00;101283.75;;;22.97;32.39
10712;BME280;5407;51.234;6.804;2023-01-30T02:00:29;101279.41;;;22.99;32.29
10712;BME280;5407;51.234;6.804;2023-01-30T02:03:01;101275.88;;;22.99;32.26
10712;BME280;5407;51.234;6.804;2023-01-30T02:05:30;101267.25;;;22.97;32.22
10712;BME280;5407;51.234;6.804;2023-01-30T02:08:01;101266.47;;;22.96;32.40
10712;BME280;5407;51.234;6.804;2023-01-30T02:10:35;101264.88;;;22.99;32.33
10712;BME280;5407;51.234;6.804;2023-01-30T02:13:05;101266.44;;;23.00;32.38
10712;BME280;5407;51.234;6.804;2023-01-30T02:15:32;101257.81;;;22.98;32.47
10712;BME280;5407;51.234;6.804;2023-01-30T02:17:59;101243.22;;;23.01;32.35
10712;BME280;5407;51.234;6.804;2023-01-30T02:20:41;101244.41;;;23.00;32.35
10712;BME280;5407;51.234;6.804;2023-01-30T02:23:45;101242.03;;;23.02;32.43
10712;BME280;5407;51.234;6.804;2023-01-30T02:26:30;101225.53;;;23.02;32.39
10712;BME280;5407;51.234;6.804;2023-01-30T02:32:13;101223.13;;;23.04;32.37
10712;BME280;5407;51.234;6.804;2023-01-30T02:34:47;101213.72;;;23.01;32.45
10712;BME280;5407;51.234;6.804;2023-01-30T02:37:30;101213.72;;;23.01;32.43
10712;BME280;5407;51.234;6.804;2023-01-30T02:40:14;101207.44;;;23.01;32.47
10712;BME280;5407;51.234;6.804;2023-01-30T02:42:51;101200.75;;;23.02;32.50
10712;BME280;5407;51.234;6.804;2023-01-30T02:45:28;101177.53;;;23.03;32.34
10712;BME280;5407;51.234;6.804;2023-01-30T02:48:02;101188.53;;;23.03;32.48
10712;BME280;5407;51.234;6.804;2023-01-30T02:50:32;101186.19;;;23.01;32.41
10712;BME280;5407;51.234;6.804;2023-01-30T02:53:01;101183.88;;;23.00;32.53
10712;BME280;5407;51.234;6.804;2023-01-30T02:55:29;101172.03;;;23.03;32.48
10712;BME280;5407;51.234;6.804;2023-01-30T02:57:56;101174.78;;;23.03;32.40
10712;BME280;5407;51.234;6.804;2023-01-30T03:00:45;101187.34;;;23.04;32.33
10712;BME280;5407;51.234;6.804;2023-01-30T03:03:33;101183.88;;;23.00;32.44
10712;BME280;5407;51.234;6.804;2023-01-30T03:06:27;101181.47;;;23.02;32.46
10712;BME280;5407;51.234;6.804;2023-01-30T03:09:06;101173.59;;;23.04;32.43
10712;BME280;5407;51.234;6.804;2023-01-30T03:11:43;101163.44;;;22.97;32.32
10712;BME280;5407;51.234;6.804;2023-01-30T03:14:18;101170.47;;;23.02;32.46
10712;BME280;5407;51.234;6.804;2023-01-30T03:16:51;101171.31;;;22.99;32.50
10712;BME280;5407;51.234;6.804;2023-01-30T03:19:21;101168.91;;;23.01;32.56
10712;BME280;5407;51.234;6.804;2023-01-30T03:21:48;101166.56;;;22.99;32.46
10712;BME280;5407;51.234;6.804;2023-01-30T03:24:16;101166.56;;;22.99;32.52
10712;BME280;5407;51.234;6.804;2023-01-30T03:26:46;101172.09;;;22.96;32.57
10712;BME280;5407;51.234;6.804;2023-01-30T03:29:14;101157.13;;;23.00;32.48
10712;BME280;5407;51.234;6.804;2023-01-30T03:31:41;101161.84;;;23.00;32.57
10712;BME280;5407;51.234;6.804;2023-01-30T03:34:08;101153.16;;;23.01;32.53
10712;BME280;5407;51.234;6.804;2023-01-30T03:36:36;101159.94;;;22.97;32.70
10712;BME280;5407;51.234;6.804;2023-01-30T03:39:03;101161.06;;;22.99;32.52
10712;BME280;5407;51.234;6.804;2023-01-30T03:41:30;101153.59;;;23.00;32.62
10712;BME280;5407;51.234;6.804;2023-01-30T03:43:58;101136.66;;;23.01;32.51
10712;BME280;5407;51.234;6.804;2023-01-30T03:46:26;101130.38;;;23.01;32.64
10712;BME280;5407;51.234;6.804;2023-01-30T03:48:52;101125.66;;;23.01;32.53
10712;BME280;5407;51.234;6.804;2023-01-30T03:51:20;101114.66;;;23.01;32.55
10712;BME280;5407;51.234;6.804;2023-01-30T03:53:48;101111.88;;;23.01;32.51
10712;BME280;5407;51.234;6.804;2023-01-30T03:56:16;101121.78;;;22.99;32.60
10712;BME280;5407;51.234;6.804;2023-01-30T03:58:43;101125.25;;;23.03;32.41
10712;BME280;5407;51.234;6.804;2023-01-30T04:01:18;101109.97;;;22.98;32.61
10712;BME280;5407;51.234;6.804;2023-01-30T04:03:46;101113.88;;;23.01;32.55
10712;BME280;5407;51.234;6.804;2023-01-30T04:06:13;101103.22;;;23.03;32.51
10712;BME280;5407;51.234;6.804;2023-01-30T04:08:41;101090.66;;;23.02;32.58
10712;BME280;5407;51.234;6.804;2023-01-30T04:11:14;101095.44;;;22.98;32.52
10712;BME280;5407;51.234;6.804;2023-01-30T04:13:41;101099.75;;;22.99;32.54
10712;BME280;5407;51.234;6.804;2023-01-30T04:16:17;101088.75;;;22.99;32.75
10712;BME280;5407;51.234;6.804;2023-01-30T04:19:03;101084.81;;;23.00;32.56
10712;BME280;5407;51.234;6.804;2023-01-30T04:21:31;101087.91;;;23.02;32.55
10712;BME280;5407;51.234;6.804;2023-01-30T04:23:58;101092.63;;;23.01;32.64
10712;BME280;5407;51.234;6.804;2023-01-30T04:26:27;101089.88;;;23.01;32.73
10712;BME280;5407;51.234;6.804;2023-01-30T04:28:54;101091.88;;;23.01;32.62
10712;BME280;5407;51.234;6.804;2023-01-30T04:31:21;101079.31;;;23.00;32.69
10712;BME280;5407;51.234;6.804;2023-01-30T04:34:04;101082.41;;;23.02;32.65
10712;BME280;5407;51.234;6.804;2023-01-30T04:36:31;101079.31;;;23.00;32.86
10712;BME280;5407;51.234;6.804;2023-01-30T04:38:57;101080.13;;;22.97;32.79
10712;BME280;5407;51.234;6.804;2023-01-30T04:41:27;101074.56;;;23.00;32.68
10712;BME280;5407;51.234;6.804;2023-01-30T04:43:58;101075.38;;;22.97;32.91
10712;BME280;5407;51.234;6.804;2023-01-30T04:46:39;101083.25;;;22.99;32.88
10712;BME280;5407;51.234;6.804;2023-01-30T04:49:05;101074.63;;;22.97;32.72
10712;BME280;5407;51.234;6.804;2023-01-30T04:51:32;101078.50;;;22.99;32.84
10712;BME280;5407;51.234;6.804;2023-01-30T04:53:59;101083.25;;;22.99;32.89
10712;BME280;5407;51.234;6.804;2023-01-30T04:56:27;101086.34;;;23.01;32.88
10712;BME280;5407;51.234;6.804;2023-01-30T04:58:54;101085.16;;;23.02;32.90
10712;BME280;5407;51.234;6.804;2023-01-30T05:01:24;101078.53;;;22.96;33.23
10712;BME280;5407;51.234;6.804;2023-01-30T05:03:51;101068.28;;;23.00;33.27
10712;BME280;5407;51.234;6.804;2023-01-30T05:06:19;101068.66;;;23.02;33.14
10712;BME280;5407;51.234;6.804;2023-01-30T05:08:47;101063.91;;;23.02;33.27
10712;BME280;5407;51.234;6.804;2023-01-30T05:11:14;101067.47;;;23.03;33.54
10712;BME280;5407;51.234;6.804;2023-01-30T05:13:42;101071.78;;;23.04;33.48
10712;BME280;5407;51.234;6.804;2023-01-30T05:16:10;101075.28;;;23.04;33.41
10712;BME280;5407;51.234;6.804;2023-01-30T05:18:37;101072.13;;;23.06;33.44
10712;BME280;5407;51.234;6.804;2023-01-30T05:21:04;101065.06;;;23.05;33.55
10712;BME280;5407;51.234;6.804;2023-01-30T05:23:32;101072.91;;;23.06;33.51
10712;BME280;5407;51.234;6.804;2023-01-30T05:25:59;101065.84;;;23.05;33.47
10712;BME280;5407;51.234;6.804;2023-01-30T05:28:27;101071.28;;;23.09;33.41
10712;BME280;5407;51.234;6.804;2023-01-30T05:30:59;101071.28;;;23.09;33.36
10712;BME280;5407;51.234;6.804;2023-01-30T05:33:26;101059.50;;;23.12;33.42
10712;BME280;5407;51.234;6.804;2023-01-30T05:35:53;101058.69;;;23.11;33.40
10712;BME280;5407;51.234;6.804;2023-01-30T05:38:21;101053.97;;;23.12;33.45
10712;BME280;5407;51.234;6.804;2023-01-30T05:40:57;101055.53;;;23.13;33.42
10712;BME280;5407;51.234;6.804;2023-01-30T05:43:24;101045.28;;;23.13;33.26
10712;BME280;5407;51.234;6.804;2023-01-30T05:45:51;101049.25;;;23.12;33.47
10712;BME280;5407;51.234;6.804;2023-01-30T05:48:20;101049.28;;;23.09;33.47
10712;BME280;5407;51.234;6.804;2023-01-30T05:50:49;101042.97;;;23.08;33.39
10712;BME280;5407;51.234;6.804;2023-01-30T05:53:16;101039.84;;;23.10;33.47
10712;BME280;5407;51.234;6.804;2023-01-30T05:55:43;101039.09;;;23.06;33.46
10712;BME280;5407;51.234;6.804;2023-01-30T05:58:10;101036.34;;;23.06;33.45
10712;BME280;5407;51.234;6.804;2023-01-30T06:00:38;101033.16;;;23.07;33.37
10712;BME280;5407;51.234;6.804;2023-01-30T06:03:05;101046.16;;;23.07;33.46
10712;BME280;5407;51.234;6.804;2023-01-30T06:05:36;101044.59;;;23.06;33.51
10712;BME280;5407;51.234;6.804;2023-01-30T06:08:03;101051.66;;;23.07;33.56
10712;BME280;5407;51.234;6.804;2023-01-30T06:10:30;101048.91;;;23.07;33.58
10712;BME280;5407;51.234;6.804;2023-01-30T06:12:57;101057.19;;;23.07;33.62
10712;BME280;5407;51.234;6.804;2023-01-30T06:15:24;101067.38;;;23.10;33.51
10712;BME280;5407;51.234;6.804;2023-01-30T06:17:50;101053.22;;;23.08;33.51
10712;BME280;5407;51.234;6.804;2023-01-30T06:20:17;101062.69;;;23.07;33.60
10712;BME280;5407;51.234;6.804;2023-01-30T06:22:46;101072.50;;;23.08;33.68
10712;BME280;5407;51.234;6.804;2023-01-30T06:25:13;101086.22;;;23.11;33.51
10712;BME280;5407;51.234;6.804;2023-01-30T06:27:40;101064.19;;;23.11;33.51
10712;BME280;5407;51.234;6.804;2023-01-30T06:30:08;101069.69;;;23.11;33.61
10712;BME280;5407;51.234;6.804;2023-01-30T06:32:36;101069.69;;;23.11;33.56
10712;BME280;5407;51.234;6.804;2023-01-30T06:35:03;101069.69;;;23.11;33.60
10712;BME280;5407;51.234;6.804;2023-01-30T06:37:30;101088.56;;;23.09;33.70
10712;BME280;5407;51.234;6.804;2023-01-30T06:39:58;101070.50;;;23.12;33.58
10712;BME280;5407;51.234;6.804;2023-01-30T06:42:25;101075.63;;;23.10;33.60
10712;BME280;5407;51.234;6.804;2023-01-30T06:44:52;101090.16;;;23.10;33.70
10712;BME280;5407;51.234;6.804;2023-01-30T06:47:19;101087.78;;;23.12;33.58
10712;BME280;5407;51.234;6.804;2023-01-30T06:49:45;101090.97;;;23.11;33.58
10712;BME280;5407;51.234;6.804;2023-01-30T06:52:13;101095.66;;;23.10;33.69
10712;BME280;5407;51.234;6.804;2023-01-30T06:54:40;101092.50;;;23.12;33.63
10712;BME280;5407;51.234;6.804;2023-01-30T06:57:08;101096.03;;;23.12;33.65
10712;BME280;5407;51.234;6.804;2023-01-30T06:59:37;101095.25;;;23.12;33.82
10712;BME280;5407;51.234;6.804;2023-01-30T07:02:03;101106.28;;;23.12;33.73
10712;BME280;5407;51.234;6.804;2023-01-30T07:04:30;101105.09;;;23.13;33.73
10712;BME280;5407;51.234;6.804;2023-01-30T07:06:57;101102.69;;;23.15;33.62
10712;BME280;5407;51.234;6.804;2023-01-30T07:09:24;101098.38;;;23.14;33.80
10712;BME280;5407;51.234;6.804;2023-01-30T07:11:51;101095.63;;;23.14;33.76
10712;BME280;5407;51.234;6.804;2023-01-30T07:14:19;101093.28;;;23.12;34.00
10712;BME280;5407;51.234;6.804;2023-01-30T07:16:46;101088.56;;;23.13;33.99
10712;BME280;5407;51.234;6.804;2023-01-30T07:19:13;101094.06;;;23.13;34.15
10712;BME280;5407;51.234;6.804;2023-01-30T07:21:40;101085.81;;;23.13;34.12
10712;BME280;5407;51.234;6.804;2023-01-30T07:24:07;101091.31;;;23.13;34.15
10712;BME280;5407;51.234;6.804;2023-01-30T07:26:34;101096.81;;;23.13;34.06
10712;BME280;5407;51.234;6.804;2023-01-30T07:29:01;101094.06;;;23.13;34.15
10712;BME280;5407;51.234;6.804;2023-01-30T07:31:29;101095.63;;;23.14;34.09
10712;BME280;5407;51.234;6.804;2023-01-30T07:33:56;101086.19;;;23.15;34.06
10712;BME280;5407;51.234;6.804;2023-01-30T07:36:23;101078.28;;;23.17;34.13
10712;BME280;5407;51.234;6.804;2023-01-30T07:38:49;101078.28;;;23.17;34.05
10712;BME280;5407;51.234;6.804;2023-01-30T07:41:16;101083.78;;;23.17;33.90
10712;BME280;5407;51.234;6.804;2023-01-30T07:43:43;101099.94;;;23.15;33.93
10712;BME280;5407;51.234;6.804;2023-01-30T07:46:10;101100.31;;;23.17;34.02
10712;BME280;5407;51.234;6.804;2023-01-30T07:48:38;101112.88;;;23.18;33.95
10712;BME280;5407;51.234;6.804;2023-01-30T07:51:05;101103.06;;;23.17;33.86
10712;BME280;5407;51.234;6.804;2023-01-30T07:53:32;101115.25;;;23.16;34.00
10712;BME280;5407;51.234;6.804;2023-01-30T07:55:59;101115.25;;;23.16;33.92
10712;BME280;5407;51.234;6.804;2023-01-30T07:58:26;101128.59;;;23.17;33.86
10712;BME280;5407;51.234;6.804;2023-01-30T08:00:54;101115.25;;;23.16;33.93
10712;BME280;5407;51.234;6.804;2023-01-30T08:03:21;101114.06;;;23.17;33.93
10712;BME280;5407;51.234;6.804;2023-01-30T08:05:49;101109.31;;;23.17;33.90
10712;BME280;5407;51.234;6.804;2023-01-30T08:08:17;101126.25;;;23.16;33.90
10712;BME280;5407;51.234;6.804;2023-01-30T08:10:47;101115.25;;;23.16;34.00
10712;BME280;5407;51.234;6.804;2023-01-30T08:13:14;101109.75;;;23.16;33.98
10712;BME280;5407;51.234;6.804;2023-01-30T08:15:41;101117.56;;;23.17;33.96
10712;BME280;5407;51.234;6.804;2023-01-30T08:18:08;101127.03;;;23.16;33.99
10712;BME280;5407;51.234;6.804;2023-01-30T08:20:35;101119.56;;;23.17;33.80
10712;BME280;5407;51.234;6.804;2023-01-30T08:23:04;101114.47;;;23.15;34.00
10712;BME280;5407;51.234;6.804;2023-01-30T08:25:31;101119.19;;;23.15;34.04
10712;BME280;5407;51.234;6.804;2023-01-30T08:28:00;101134.16;;;23.14;33.90
10712;BME280;5407;51.234;6.804;2023-01-30T08:30:28;101142.00;;;23.15;33.98
10712;BME280;5407;51.234;6.804;2023-01-30T08:32:55;101145.53;;;23.16;33.91
10712;BME280;5407;51.234;6.804;2023-01-30T08:35:22;101138.84;;;23.17;33.92
10712;BME280;5407;51.234;6.804;2023-01-30T08:37:49;101149.84;;;23.17;33.98
10712;BME280;5407;51.234;6.804;2023-01-30T08:40:17;101148.28;;;23.16;34.02
10712;BME280;5407;51.234;6.804;2023-01-30T08:42:44;101143.19;;;23.14;34.07
10712;BME280;5407;51.234;6.804;2023-01-30T08:45:11;101147.84;;;23.17;34.09
10712;BME280;5407;51.234;6.804;2023-01-30T08:47:38;101155.34;;;23.17;33.97
10712;BME280;5407;51.234;6.804;2023-01-30T08:50:05;101147.47;;;23.19;33.85
10712;BME280;5407;51.234;6.804;2023-01-30T08:52:32;101151.41;;;23.18;34.13
10712;BME280;5407;51.234;6.804;2023-01-30T08:54:59;101159.31;;;23.16;34.29
10712;BME280;5407;51.234;6.804;2023-01-30T08:57:27;101169.47;;;23.19;34.26
10712;BME280;5407;51.234;6.804;2023-01-30T08:59:54;101170.25;;;23.19;34.29
10712;BME280;5407;51.234;6.804;2023-01-30T09:02:21;101180.09;;;23.20;34.35
10712;BME280;5407;51.234;6.804;2023-01-30T09:04:48;101183.59;;;23.21;34.28
10712;BME280;5407;51.234;6.804;2023-01-30T09:07:14;101185.16;;;23.22;34.43
10712;BME280;5407;51.234;6.804;2023-01-30T09:09:41;101182.78;;;23.24;34.49
10712;BME280;5407;51.234;6.804;2023-01-30T09:12:08;101176.91;;;23.22;34.56
10712;BME280;5407;51.234;6.804;2023-01-30T09:14:36;101170.22;;;23.23;34.47
10712;BME280;5407;51.234;6.804;2023-01-30T09:17:03;101156.06;;;23.21;34.61
10712;BME280;5407;51.234;6.804;2023-01-30T09:19:30;101153.69;;;23.23;34.54
10712;BME280;5407;51.234;6.804;2023-01-30T09:21:57;101147.41;;;23.22;34.60
10712;BME280;5407;51.234;6.804;2023-01-30T09:24:24;101149.38;;;23.22;34.22
10712;BME280;5407;51.234;6.804;2023-01-30T09:26:52;101158.47;;;23.19;34.37
10712;BME280;5407;51.234;6.804;2023-01-30T09:29:21;101169.84;;;23.21;34.49
10712;BME280;5407;51.234;6.804;2023-01-30T09:31:50;101176.53;;;23.20;34.54
10712;BME280;5407;51.234;6.804;2023-01-30T09:34:17;101182.06;;;23.20;34.41
10712;BME280;5407;51.234;6.804;2023-01-30T09:36:44;101181.22;;;23.23;34.42
10712;BME280;5407;51.234;6.804;2023-01-30T09:39:11;101178.47;;;23.23;34.54
10712;BME280;5407;51.234;6.804;2023-01-30T09:41:55;101182.78;;;23.24;34.45
10712;BME280;5407;51.234;6.804;2023-01-30T09:47:25;101190.19;;;23.27;34.39
10712;BME280;5407;51.234;6.804;2023-01-30T09:50:06;101183.59;;;23.21;34.60
10712;BME280;5407;51.234;6.804;2023-01-30T09:52:48;101200.09;;;23.24;34.41
10712;BME280;5407;51.234;6.804;2023-01-30T09:55:20;101193.03;;;23.23;34.43
10712;BME280;5407;51.234;6.804;2023-01-30T09:57:49;101194.59;;;23.24;34.46
10712;BME280;5407;51.234;6.804;2023-01-30T10:00:22;101196.53;;;23.24;34.66
10712;BME280;5407;51.234;6.804;2023-01-30T10:02:57;101191.03;;;23.24;34.46
10712;BME280;5407;51.234;6.804;2023-01-30T10:05:30;101188.28;;;23.24;34.46
10712;BME280;5407;51.234;6.804;2023-01-30T10:08:14;101206.34;;;23.25;34.36
10712;BME280;5407;51.234;6.804;2023-01-30T10:10:47;101204.81;;;23.24;34.49
10712;BME280;5407;51.234;6.804;2023-01-30T10:13:33;101211.09;;;23.24;34.51
10712;BME280;5407;51.234;6.804;2023-01-30T10:16:09;101209.53;;;23.23;34.46
10712;BME280;5407;51.234;6.804;2023-01-30T10:18:56;101224.44;;;23.26;34.43
10712;BME280;5407;51.234;6.804;2023-01-30T10:21:34;101224.50;;;23.22;34.38
10712;BME280;5407;51.234;6.804;2023-01-30T10:24:23;101233.88;;;23.25;34.48
10712;BME280;5407;51.234;6.804;2023-01-30T10:26:51;101240.19;;;23.25;34.31
10712;BME280;5407;51.234;6.804;2023-01-30T10:29:22;101226.00;;;23.27;34.27
10712;BME280;5407;51.234;6.804;2023-01-30T10:31:55;101216.53;;;23.28;34.06
10712;BME280;5407;51.234;6.804;2023-01-30T10:34:28;101217.34;;;23.28;34.42
10712;BME280;5407;51.234;6.804;2023-01-30T10:37:01;101211.84;;;23.28;34.51
10712;BME280;5407;51.234;6.804;2023-01-30T10:39:35;101216.53;;;23.28;34.43
10712;BME280;5407;51.234;6.804;2023-01-30T10:42:08;101234.63;;;23.29;34.53
10712;BME280;5407;51.234;6.804;2023-01-30T10:44:37;101225.16;;;23.30;34.49
10712;BME280;5407;51.234;6.804;2023-01-30T10:47:27;101216.53;;;23.28;34.44
10712;BME280;5407;51.234;6.804;2023-01-30T10:50:09;101233.06;;;23.28;34.45
10712;BME280;5407;51.234;6.804;2023-01-30T10:52:42;101226.38;;;23.29;34.34
10712;BME280;5407;51.234;6.804;2023-01-30T10:55:16;101228.34;;;23.28;34.47
10712;BME280;5407;51.234;6.804;2023-01-30T10:57:52;101222.06;;;23.28;34.42
10712;BME280;5407;51.234;6.804;2023-01-30T11:00:27;101222.06;;;23.28;34.41
10712;BME280;5407;51.234;6.804;2023-01-30T11:03:07;101228.34;;;23.28;34.48
10712;BME280;5407;51.234;6.804;2023-01-30T11:05:43;101242.50;;;23.27;34.53
10712;BME280;5407;51.234;6.804;2023-01-30T11:08:17;101224.44;;;23.26;34.36
10712;BME280;5407;51.234;6.804;2023-01-30T11:10:44;101226.81;;;23.24;34.41
10712;BME280;5407;51.234;6.804;2023-01-30T11:13:15;101224.44;;;23.26;34.38
10712;BME280;5407;51.234;6.804;2023-01-30T11:15:44;101244.50;;;23.26;34.28
10712;BME280;5407;51.234;6.804;2023-01-30T11:18:12;101235.09;;;23.24;34.23
10712;BME280;5407;51.234;6.804;2023-01-30T11:20:44;101231.56;;;23.23;34.41
10712;BME280;5407;51.234;6.804;2023-01-30T11:23:23;101213.44;;;23.26;34.30
10712;BME280;5407;51.234;6.804;2023-01-30T11:25:53;101222.88;;;23.25;34.26
10712;BME280;5407;51.234;6.804;2023-01-30T11:28:20;101226.81;;;23.24;34.31
10712;BME280;5407;51.234;6.804;2023-01-30T11:30:52;101227.56;;;23.28;34.16
10712;BME280;5407;51.234;6.804;2023-01-30T11:33:22;101236.28;;;23.23;34.15
10712;BME280;5407;51.234;6.804;2023-01-30T11:35:56;101235.09;;;23.24;34.28
10712;BME280;5407;51.234;6.804;2023-01-30T11:38:25;101240.59;;;23.24;34.29
10712;BME280;5407;51.234;6.804;2023-01-30T11:41:04;101247.28;;;23.23;34.20
10712;BME280;5407;51.234;6.804;2023-01-30T11:43:32;101240.66;;;23.20;34.22
10712;BME280;5407;51.234;6.804;2023-01-30T11:45:59;101230.03;;;23.19;34.14
10712;BME280;5407;51.234;6.804;2023-01-30T11:48:29;101230.41;;;23.21;34.15
10712;BME280;5407;51.234;6.804;2023-01-30T11:50:59;101255.22;;;23.17;34.24
10712;BME280;5407;51.234;6.804;2023-01-30T11:53:33;101256.00;;;23.18;34.16
10712;BME280;5407;51.234;6.804;2023-01-30T11:56:07;101242.25;;;23.18;34.27
10712;BME280;5407;51.234;6.804;2023-01-30T11:58:38;101237.94;;;23.17;34.19
10712;BME280;5407;51.234;6.804;2023-01-30T12:01:08;101228.47;;;23.18;34.25
10712;BME280;5407;51.234;6.804;2023-01-30T12:03:42;101227.69;;;23.17;34.10
10712;BME280;5407;51.234;6.804;2023-01-30T12:06:20;101228.47;;;23.18;34.21
10712;BME280;5407;51.234;6.804;2023-01-30T12:08:51;101233.63;;;23.16;34.23
10712;BME280;5407;51.234;6.804;2023-01-30T12:11:27;101243.44;;;23.17;34.11
10712;BME280;5407;51.234;6.804;2023-01-30T12:14:03;101235.19;;;23.17;34.10
10712;BME280;5407;51.234;6.804;2023-01-30T12:16:47;101247.38;;;23.16;34.14
10712;BME280;5407;51.234;6.804;2023-01-30T12:19:25;101239.50;;;23.18;34.02
10712;BME280;5407;51.234;6.804;2023-01-30T12:22:00;101247.38;;;23.16;34.16
10712;BME280;5407;51.234;6.804;2023-01-30T12:24:34;101238.75;;;23.14;34.19
10712;BME280;5407;51.234;6.804;2023-01-30T12:27:07;101232.44;;;23.17;34.22
10712;BME280;5407;51.234;6.804;2023-01-30T12:29:41;101236.38;;;23.16;34.16
10712;BME280;5407;51.234;6.804;2023-01-30T12:32:16;101232.81;;;23.15;34.08
10712;BME280;5407;51.234;6.804;2023-01-30T12:34:44;101228.13;;;23.16;34.13
10712;BME280;5407;51.234;6.804;2023-01-30T12:37:34;101224.94;;;23.17;34.12
10712;BME280;5407;51.234;6.804;2023-01-30T12:40:12;101228.47;;;23.18;34.10
10712;BME280;5407;51.234;6.804;2023-01-30T12:43:03;101236.31;;;23.19;34.16
10712;BME280;5407;51.234;6.804;2023-01-30T12:45:34;101239.50;;;23.18;34.19
10712;BME280;5407;51.234;6.804;2023-01-30T12:48:23;101239.50;;;23.18;34.24
10712;BME280;5407;51.234;6.804;2023-01-30T12:51:04;101226.91;;;23.17;34.26
10712;BME280;5407;51.234;6.804;2023-01-30T12:53:50;101244.91;;;23.25;34.21
10712;BME280;5407;51.234;6.804;2023-01-30T12:56:39;101233.06;;;23.28;34.40
10712;BME280;5407;51.234;6.804;2023-01-30T12:59:12;101234.63;;;23.29;34.29
10712;BME280;5407;51.234;6.804;2023-01-30T13:01:51;101250.38;;;23.28;34.41
10712;BME280;5407;51.234;6.804;2023-01-30T13:04:33;101263.34;;;23.28;34.30
10712;BME280;5407;51.234;6.804;2023-01-30T13:07:09;101271.59;;;23.28;34.30
10712;BME280;5407;51.234;6.804;2023-01-30T13:09:51;101259.03;;;23.27;34.31
10712;BME280;5407;51.234;6.804;2023-01-30T13:12:25;101260.59;;;23.28;34.24
10712;BME280;5407;51.234;6.804;2023-01-30T13:15:02;101257.47;;;23.26;34.29
10712;BME280;5407;51.234;6.804;2023-01-30T13:17:47;101264.53;;;23.27;34.16
10712;BME280;5407;51.234;6.804;2023-01-30T13:20:26;101268.50;;;23.26;34.21
10712;BME280;5407;51.234;6.804;2023-01-30T13:23:00;101270.47;;;23.25;34.31
10712;BME280;5407;51.234;6.804;2023-01-30T13:25:36;101283.44;;;23.25;34.27